地図

経路データ

SID SEASON NUMBER BASIN SUBBASIN NAME ISO_TIME NATURE LAT LON WMO_WIND WMO_PRES WMO_AGENCY TRACK_TYPE DIST2LAND LANDFALL IFLAG USA_AGENCY USA_ATCF_ID USA_LAT USA_LON USA_RECORD USA_STATUS USA_WIND USA_PRES USA_SSHS USA_R34_NE USA_R34_SE USA_R34_SW USA_R34_NW USA_R50_NE USA_R50_SE USA_R50_SW USA_R50_NW USA_R64_NE USA_R64_SE USA_R64_SW USA_R64_NW USA_POCI USA_ROCI USA_RMW USA_EYE TOKYO_LAT TOKYO_LON TOKYO_GRADE TOKYO_WIND TOKYO_PRES TOKYO_R50_DIR TOKYO_R50_LONG TOKYO_R50_SHORT TOKYO_R30_DIR TOKYO_R30_LONG TOKYO_R30_SHORT TOKYO_LAND CMA_LAT CMA_LON CMA_CAT CMA_WIND CMA_PRES HKO_LAT HKO_LON HKO_CAT HKO_WIND HKO_PRES NEWDELHI_LAT NEWDELHI_LON NEWDELHI_GRADE NEWDELHI_WIND NEWDELHI_PRES NEWDELHI_CI NEWDELHI_DP NEWDELHI_POCI REUNION_LAT REUNION_LON REUNION_TYPE REUNION_WIND REUNION_PRES REUNION_TNUM REUNION_CI REUNION_RMW REUNION_R34_NE REUNION_R34_SE REUNION_R34_SW REUNION_R34_NW REUNION_R50_NE REUNION_R50_SE REUNION_R50_SW REUNION_R50_NW REUNION_R64_NE REUNION_R64_SE REUNION_R64_SW REUNION_R64_NW BOM_LAT BOM_LON BOM_TYPE BOM_WIND BOM_PRES BOM_TNUM BOM_CI BOM_RMW BOM_R34_NE BOM_R34_SE BOM_R34_SW BOM_R34_NW BOM_R50_NE BOM_R50_SE BOM_R50_SW BOM_R50_NW BOM_R64_NE BOM_R64_SE BOM_R64_SW BOM_R64_NW BOM_ROCI BOM_POCI BOM_EYE BOM_POS_METHOD BOM_PRES_METHOD NADI_LAT NADI_LON NADI_CAT NADI_WIND NADI_PRES WELLINGTON_LAT WELLINGTON_LON WELLINGTON_WIND WELLINGTON_PRES DS824_LAT DS824_LON DS824_STAGE DS824_WIND DS824_PRES TD9636_LAT TD9636_LON TD9636_STAGE TD9636_WIND TD9636_PRES TD9635_LAT TD9635_LON TD9635_WIND TD9635_PRES TD9635_ROCI NEUMANN_LAT NEUMANN_LON NEUMANN_CLASS NEUMANN_WIND NEUMANN_PRES MLC_LAT MLC_LON MLC_CLASS MLC_WIND MLC_PRES USA_GUST BOM_GUST BOM_GUST_PER REUNION_GUST REUNION_GUST_PER USA_SEAHGT USA_SEARAD_NE USA_SEARAD_SE USA_SEARAD_SW USA_SEARAD_NW STORM_SPEED STORM_DIR
1884316S06095 1885 46 SI WA NOT_NAMED 1884-11-11 06:00:00 NR -6.40000 94.7000 main 703 703 _____O________ -1 -6.40000 94.7000 99 9.90000 4 239
1884316S06095 1885 46 SI WA NOT_NAMED 1884-11-11 09:00:00 NR -6.49268 94.5391 main 726 726 _____P________ -1 -6.49268 94.5391 99 4 240
1884316S06095 1885 46 SI WA NOT_NAMED 1884-11-11 12:00:00 NR -6.58603 94.3768 main 742 742 _____P________ -1 -6.58603 94.3768 99 4 240
1884316S06095 1885 46 SI WA NOT_NAMED 1884-11-11 15:00:00 NR -6.68076 94.2118 main 765 765 _____P________ -1 -6.68076 94.2118 99 4 240
1884316S06095 1885 46 SI WA NOT_NAMED 1884-11-11 18:00:00 NR -6.77759 94.0428 main 788 788 _____P________ -1 -6.77759 94.0428 99 4 240
1884316S06095 1885 46 SI WA NOT_NAMED 1884-11-11 21:00:00 NR -6.87722 93.8685 main 804 804 _____P________ -1 -6.87722 93.8685 99 4 240
1884316S06095 1885 46 SI WA NOT_NAMED 1884-11-12 00:00:00 NR -6.98036 93.6874 main 827 827 _____P________ -1 -6.98036 93.6874 99 4 240
1884316S06095 1885 46 SI WA NOT_NAMED 1884-11-12 03:00:00 NR -7.08772 93.4984 main 851 851 _____P________ -1 -7.08772 93.4984 99 4 240
1884316S06095 1885 46 SI WA NOT_NAMED 1884-11-12 06:00:00 NR -7.20000 93.3000 main 875 875 _____O________ -1 -7.20000 93.3000 99 9.90000 5 240
1884316S06095 1885 46 SI WA NOT_NAMED 1884-11-12 09:00:00 NR -7.31799 93.0913 main 898 898 _____P________ -1 -7.31799 93.0913 99 5 240
1884316S06095 1885 46 SI WA NOT_NAMED 1884-11-12 12:00:00 NR -7.44277 92.8727 main 922 922 _____P________ -1 -7.44277 92.8727 99 5 240
1884316S06095 1885 46 SI WA NOT_NAMED 1884-11-12 15:00:00 NR -7.57552 92.6451 main 961 961 _____P________ -1 -7.57552 92.6451 99 5 239
1884316S06095 1885 46 SI WA NOT_NAMED 1884-11-12 18:00:00 NR -7.71741 92.4093 main 985 985 _____P________ -1 -7.71741 92.4093 99 6 238
1884316S06095 1885 46 SI WA NOT_NAMED 1884-11-12 21:00:00 NR -7.86962 92.1661 main 1017 1017 _____P________ -1 -7.86962 92.1661 99 6 237
1884316S06095 1885 46 SI WA NOT_NAMED 1884-11-13 00:00:00 NR -8.03333 91.9163 main 1049 1049 _____P________ -1 -8.03333 91.9163 99 6 236
1884316S06095 1885 46 SI WA NOT_NAMED 1884-11-13 03:00:00 NR -8.20973 91.6607 main 1080 1080 _____P________ -1 -8.20973 91.6607 99 6 234
1884316S06095 1885 46 SI WA NOT_NAMED 1884-11-13 06:00:00 NR -8.40000 91.4000 main 1119 1119 _____O________ -1 -8.40000 91.4000 99 9.90000 7 233
1884316S06095 1885 46 SI WA NOT_NAMED 1884-11-13 09:00:00 NR -8.60501 91.1295 main 1159 1159 _____P________ -1 -8.60501 91.1295 99 7 232
1884316S06095 1885 46 SI WA NOT_NAMED 1884-11-13 12:00:00 NR -8.82482 90.8515 main 1190 1190 _____P________ -1 -8.82482 90.8515 99 7 231
1884316S06095 1885 46 SI WA NOT_NAMED 1884-11-13 15:00:00 NR -9.05664 90.5690 main 1237 1237 _____P________ -1 -9.05664 90.5690 99 7 230
1884316S06095 1885 46 SI WA NOT_NAMED 1884-11-13 18:00:00 NR -9.29773 90.2853 main 1277 1277 _____P________ -1 -9.29773 90.2853 99 7 229
1884316S06095 1885 46 SI WA NOT_NAMED 1884-11-13 21:00:00 NR -9.54534 90.0033 main 1316 1316 _____P________ -1 -9.54534 90.0033 99 7 228
1884316S06095 1885 46 SI MM NOT_NAMED 1884-11-14 00:00:00 NR -9.79674 89.7264 main 1363 1363 _____P________ -1 -9.79674 89.7264 99 7 227
1884316S06095 1885 46 SI MM NOT_NAMED 1884-11-14 03:00:00 NR -10.0492 89.4575 main 1395 1395 _____P________ -1 -10.0492 89.4575 99 7 226
1884316S06095 1885 46 SI MM NOT_NAMED 1884-11-14 06:00:00 NR -10.3000 89.2000 main 1441 1441 _____O________ -1 -10.3000 89.2000 99 9.90000 7 225
1884316S06095 1885 46 SI MM NOT_NAMED 1884-11-14 09:00:00 NR -10.5354 88.9545 main 1473 1473 _____P________ -1 -10.5354 88.9545 99 7 225
1884316S06095 1885 46 SI MM NOT_NAMED 1884-11-14 12:00:00 NR -10.7707 88.7184 main 1519 1519 _____P________ -1 -10.7707 88.7184 99 7 224
1884316S06095 1885 46 SI MM NOT_NAMED 1884-11-14 15:00:00 NR -11.0061 88.4918 main 1551 1551 _____P________ -1 -11.0061 88.4918 99 6 223
1884316S06095 1885 46 SI MM NOT_NAMED 1884-11-14 18:00:00 NR -11.2422 88.2746 main 1582 1582 _____P________ -1 -11.2422 88.2746 99 6 221
1884316S06095 1885 46 SI MM NOT_NAMED 1884-11-14 21:00:00 NR -11.4792 88.0668 main 1621 1621 _____P________ -1 -11.4792 88.0668 99 6 220
1884316S06095 1885 46 SI MM NOT_NAMED 1884-11-15 00:00:00 NR -11.7176 87.8684 main 1652 1652 _____P________ -1 -11.7176 87.8684 99 6 218
1884316S06095 1885 46 SI MM NOT_NAMED 1884-11-15 03:00:00 NR -11.9578 87.6795 main 1690 1690 _____P________ -1 -11.9578 87.6795 99 6 217
1884316S06095 1885 46 SI MM NOT_NAMED 1884-11-15 06:00:00 NR -12.2000 87.5000 main 1722 1722 _____O________ -1 -12.2000 87.5000 99 9.90000 6 216
1884316S06095 1885 46 SI MM NOT_NAMED 1884-11-15 09:00:00 NR -12.4586 87.3134 main 1760 1760 _____P________ -1 -12.4586 87.3134 99 6 214
1884316S06095 1885 46 SI MM NOT_NAMED 1884-11-15 12:00:00 NR -12.7210 87.1357 main 1791 1791 _____P________ -1 -12.7210 87.1357 99 6 213
1884316S06095 1885 46 SI MM NOT_NAMED 1884-11-15 15:00:00 NR -12.9841 86.9677 main 1822 1822 _____P________ -1 -12.9841 86.9677 99 6 211
1884316S06095 1885 46 SI MM NOT_NAMED 1884-11-15 18:00:00 NR -13.2448 86.8102 main 1853 1853 _____P________ -1 -13.2448 86.8102 99 6 210
1884316S06095 1885 46 SI MM NOT_NAMED 1884-11-15 21:00:00 NR -13.4998 86.6639 main 1884 1884 _____P________ -1 -13.4998 86.6639 99 6 209
1884316S06095 1885 46 SI MM NOT_NAMED 1884-11-16 00:00:00 NR -13.7462 86.5295 main 1915 1915 _____P________ -1 -13.7462 86.5295 99 5 207
1884316S06095 1885 46 SI MM NOT_NAMED 1884-11-16 03:00:00 NR -13.9806 86.4080 main 1946 1946 _____P________ -1 -13.9806 86.4080 99 5 206
1884316S06095 1885 46 SI MM NOT_NAMED 1884-11-16 06:00:00 NR -14.2000 86.3000 main 1970 1970 _____O________ -1 -14.2000 86.3000 99 9.90000 5 206
1884316S06095 1885 46 SI MM NOT_NAMED 1884-11-16 09:00:00 NR -14.3853 86.2026 main 1993 1993 _____P________ -1 -14.3853 86.2026 99 4 206
1884316S06095 1885 46 SI MM NOT_NAMED 1884-11-16 12:00:00 NR -14.5548 86.1199 main 2016 2016 _____P________ -1 -14.5548 86.1199 99 4 205
1884316S06095 1885 46 SI MM NOT_NAMED 1884-11-16 15:00:00 NR -14.7130 86.0495 main 2032 2032 _____P________ -1 -14.7130 86.0495 99 3 202
1884316S06095 1885 46 SI MM NOT_NAMED 1884-11-16 18:00:00 NR -14.8647 85.9891 main 2048 2048 _____P________ -1 -14.8647 85.9891 99 3 200
1884316S06095 1885 46 SI MM NOT_NAMED 1884-11-16 21:00:00 NR -15.0146 85.9363 main 2063 2063 _____P________ -1 -15.0146 85.9363 99 3 198
1884316S06095 1885 46 SI MM NOT_NAMED 1884-11-17 00:00:00 NR -15.1673 85.8888 main 2079 2079 _____P________ -1 -15.1673 85.8888 99 3 196
1884316S06095 1885 46 SI MM NOT_NAMED 1884-11-17 03:00:00 NR -15.3276 85.8441 main 2095 2095 _____P________ -1 -15.3276 85.8441 99 3 195
1884316S06095 1885 46 SI MM NOT_NAMED 1884-11-17 06:00:00 NR -15.5000 85.8000 main 2111 2111 _____O________ -1 -15.5000 85.8000 99 9.90000 4 194
1884316S06095 1885 46 SI MM NOT_NAMED 1884-11-17 09:00:00 NR -15.6882 85.7544 main 2127 2127 _____P________ -1 -15.6882 85.7544 99 4 193
1884316S06095 1885 46 SI MM NOT_NAMED 1884-11-17 12:00:00 NR -15.8911 85.7071 main 2150 2150 _____P________ -1 -15.8911 85.7071 99 4 192
1884316S06095 1885 46 SI MM NOT_NAMED 1884-11-17 15:00:00 NR -16.1066 85.6583 main 2166 2166 _____P________ -1 -16.1066 85.6583 99 5 193
1884316S06095 1885 46 SI MM NOT_NAMED 1884-11-17 18:00:00 NR -16.3327 85.6083 main 2190 2190 _____P________ -1 -16.3327 85.6083 99 5 192
1884316S06095 1885 46 SI MM NOT_NAMED 1884-11-17 21:00:00 NR -16.5672 85.5572 main 2215 2215 _____P________ -1 -16.5672 85.5572 99 5 191
1884316S06095 1885 46 SI MM NOT_NAMED 1884-11-18 00:00:00 NR -16.8080 85.5053 main 2238 2238 _____P________ -1 -16.8080 85.5053 99 5 192
1884316S06095 1885 46 SI MM NOT_NAMED 1884-11-18 03:00:00 NR -17.0530 85.4529 main 2263 2263 _____P________ -1 -17.0530 85.4529 99 5 191
1884316S06095 1885 46 SI MM NOT_NAMED 1884-11-18 06:00:00 NR -17.3000 85.4000 main 2287 _____O________ -1 -17.3000 85.4000 99 9.90000 5 193

IBTrACS Databaseについて

本データベースは、米国NOAAが公開する1842年以降の世界の熱帯低気圧のベストトラックデータアーカイブInternational Best Track Archive for Climate Stewardship (IBTrACS)を、ウェブで閲覧しやすい形式に変換したものです。

最終更新日:2021-12-01